sensor_id;sensor_type;location;lat;lon;timestamp;pressure;altitude;pressure_sealevel;temperature;humidity
72486;BME280;60509;47.308;-122.428;2023-04-30T00:02:11;100261.08;;;17.33;24.34
72486;BME280;60509;47.308;-122.428;2023-04-30T00:04:37;100255.86;;;18.21;24.44
72486;BME280;60509;47.308;-122.428;2023-04-30T00:07:03;100250.21;;;18.54;23.92
72486;BME280;60509;47.308;-122.428;2023-04-30T00:09:29;100247.37;;;18.56;23.93
72486;BME280;60509;47.308;-122.428;2023-04-30T00:11:55;100248.05;;;18.32;23.93
72486;BME280;60509;47.308;-122.428;2023-04-30T00:14:21;100244.70;;;18.06;23.78
72486;BME280;60509;47.308;-122.428;2023-04-30T00:16:47;100241.25;;;17.70;24.01
72486;BME280;60509;47.308;-122.428;2023-04-30T00:19:12;100244.87;;;17.33;23.89
72486;BME280;60509;47.308;-122.428;2023-04-30T00:21:38;100240.31;;;17.32;23.99
72486;BME280;60509;47.308;-122.428;2023-04-30T00:24:05;100240.15;;;16.93;23.81
72486;BME280;60509;47.308;-122.428;2023-04-30T00:26:30;100240.45;;;17.00;23.72
72486;BME280;60509;47.308;-122.428;2023-04-30T00:28:56;100236.30;;;17.38;23.34
72486;BME280;60509;47.308;-122.428;2023-04-30T00:31:22;100238.19;;;17.19;23.47
72486;BME280;60509;47.308;-122.428;2023-04-30T00:33:48;100230.93;;;17.43;23.11
72486;BME280;60509;47.308;-122.428;2023-04-30T00:36:14;100233.46;;;17.79;22.88
72486;BME280;60509;47.308;-122.428;2023-04-30T00:38:40;100230.94;;;17.85;22.82
72486;BME280;60509;47.308;-122.428;2023-04-30T00:41:06;100228.10;;;18.04;22.79
72486;BME280;60509;47.308;-122.428;2023-04-30T00:43:32;100220.75;;;18.00;22.61
72486;BME280;60509;47.308;-122.428;2023-04-30T00:45:57;100218.88;;;18.32;23.91
72486;BME280;60509;47.308;-122.428;2023-04-30T00:48:23;100212.53;;;19.07;22.87
72486;BME280;60509;47.308;-122.428;2023-04-30T00:50:49;100210.51;;;18.36;23.61
72486;BME280;60509;47.308;-122.428;2023-04-30T00:53:15;100208.56;;;18.65;22.90
72486;BME280;60509;47.308;-122.428;2023-04-30T00:55:41;100203.35;;;18.95;22.79
72486;BME280;60509;47.308;-122.428;2023-04-30T00:58:07;100207.85;;;18.56;22.82
72486;BME280;60509;47.308;-122.428;2023-04-30T01:00:33;100213.27;;;17.94;23.10
72486;BME280;60509;47.308;-122.428;2023-04-30T01:02:58;100215.40;;;17.73;23.00
72486;BME280;60509;47.308;-122.428;2023-04-30T01:05:24;100211.76;;;23.89;19.62
72486;BME280;60509;47.308;-122.428;2023-04-30T01:07:50;100207.05;;;19.83;21.09
72486;BME280;60509;47.308;-122.428;2023-04-30T01:10:16;100202.61;;;19.17;21.90
72486;BME280;60509;47.308;-122.428;2023-04-30T01:12:49;100203.55;;;18.59;22.30
72486;BME280;60509;47.308;-122.428;2023-04-30T01:15:12;100202.22;;;17.72;22.86
72486;BME280;60509;47.308;-122.428;2023-04-30T01:17:38;100203.29;;;17.38;23.17
72486;BME280;60509;47.308;-122.428;2023-04-30T01:20:00;100196.79;;;17.37;23.54
72486;BME280;60509;47.308;-122.428;2023-04-30T01:22:35;100199.80;;;17.78;24.35
72486;BME280;60509;47.308;-122.428;2023-04-30T01:25:17;100200.96;;;17.48;24.46
72486;BME280;60509;47.308;-122.428;2023-04-30T01:29:42;100191.13;;;17.60;24.61
72486;BME280;60509;47.308;-122.428;2023-04-30T01:32:10;100191.28;;;17.76;24.26
72486;BME280;60509;47.308;-122.428;2023-04-30T01:34:34;100190.00;;;17.20;24.88
72486;BME280;60509;47.308;-122.428;2023-04-30T01:37:09;100192.44;;;17.95;24.03
72486;BME280;60509;47.308;-122.428;2023-04-30T01:39:37;100196.39;;;17.28;23.73
72486;BME280;60509;47.308;-122.428;2023-04-30T01:41:59;100196.38;;;17.04;23.16
72486;BME280;60509;47.308;-122.428;2023-04-30T01:44:31;100195.42;;;17.54;23.07
72486;BME280;60509;47.308;-122.428;2023-04-30T01:46:48;100197.20;;;17.54;22.73
72486;BME280;60509;47.308;-122.428;2023-04-30T01:49:14;100197.35;;;17.80;22.67
72486;BME280;60509;47.308;-122.428;2023-04-30T01:51:40;100201.62;;;17.18;22.38
72486;BME280;60509;47.308;-122.428;2023-04-30T01:54:05;100205.63;;;17.73;22.28
72486;BME280;60509;47.308;-122.428;2023-04-30T01:56:32;100206.48;;;17.40;22.33
72486;BME280;60509;47.308;-122.428;2023-04-30T01:58:53;100203.74;;;17.41;23.45
72486;BME280;60509;47.308;-122.428;2023-04-30T02:01:27;100197.95;;;18.47;22.75
72486;BME280;60509;47.308;-122.428;2023-04-30T02:03:45;100199.35;;;18.57;22.48
72486;BME280;60509;47.308;-122.428;2023-04-30T02:06:10;100195.57;;;17.56;23.00
72486;BME280;60509;47.308;-122.428;2023-04-30T02:08:36;100194.15;;;17.22;23.32
72486;BME280;60509;47.308;-122.428;2023-04-30T02:11:02;100190.01;;;17.71;23.04
72486;BME280;60509;47.308;-122.428;2023-04-30T02:13:28;100190.70;;;17.36;23.00
72486;BME280;60509;47.308;-122.428;2023-04-30T02:15:54;100191.31;;;17.44;22.84
72486;BME280;60509;47.308;-122.428;2023-04-30T02:18:20;100190.23;;;17.29;22.60
72486;BME280;60509;47.308;-122.428;2023-04-30T02:20:45;100191.53;;;17.22;22.26
72486;BME280;60509;47.308;-122.428;2023-04-30T02:23:11;100188.69;;;17.15;22.25
72486;BME280;60509;47.308;-122.428;2023-04-30T02:25:37;100186.60;;;16.83;22.14
72486;BME280;60509;47.308;-122.428;2023-04-30T02:28:03;100189.89;;;17.19;21.82
72486;BME280;60509;47.308;-122.428;2023-04-30T02:30:29;100188.89;;;17.83;22.88
72486;BME280;60509;47.308;-122.428;2023-04-30T02:32:55;100187.64;;;18.44;22.00
72486;BME280;60509;47.308;-122.428;2023-04-30T02:35:21;100189.57;;;18.10;23.18
72486;BME280;60509;47.308;-122.428;2023-04-30T02:37:46;100194.04;;;17.37;22.76
72486;BME280;60509;47.308;-122.428;2023-04-30T02:40:13;100190.60;;;17.10;22.82
72486;BME280;60509;47.308;-122.428;2023-04-30T02:42:38;100190.32;;;17.59;22.47
72486;BME280;60509;47.308;-122.428;2023-04-30T02:45:05;100189.91;;;16.68;22.40
72486;BME280;60509;47.308;-122.428;2023-04-30T02:47:30;100186.97;;;17.21;22.17
72486;BME280;60509;47.308;-122.428;2023-04-30T02:49:56;100188.19;;;16.66;22.11
72486;BME280;60509;47.308;-122.428;2023-04-30T02:52:22;100184.36;;;16.59;22.17
72486;BME280;60509;47.308;-122.428;2023-04-30T02:54:48;100181.36;;;17.35;22.92
72486;BME280;60509;47.308;-122.428;2023-04-30T02:57:14;100178.10;;;17.98;22.42
72486;BME280;60509;47.308;-122.428;2023-04-30T02:59:39;100174.30;;;18.86;21.87
72486;BME280;60509;47.308;-122.428;2023-04-30T03:02:05;100175.89;;;17.66;22.61
72486;BME280;60509;47.308;-122.428;2023-04-30T03:04:31;100176.22;;;17.29;23.00
72486;BME280;60509;47.308;-122.428;2023-04-30T03:06:57;100177.45;;;16.62;23.05
72486;BME280;60509;47.308;-122.428;2023-04-30T03:09:23;100186.34;;;16.08;23.03
72486;BME280;60509;47.308;-122.428;2023-04-30T03:11:49;100187.41;;;16.51;22.67
72486;BME280;60509;47.308;-122.428;2023-04-30T03:14:15;100196.21;;;16.17;24.46
72486;BME280;60509;47.308;-122.428;2023-04-30T03:16:41;100195.53;;;17.35;23.02
72486;BME280;60509;47.308;-122.428;2023-04-30T03:19:06;100194.67;;;18.07;22.28
72486;BME280;60509;47.308;-122.428;2023-04-30T03:21:32;100195.02;;;18.50;21.99
72486;BME280;60509;47.308;-122.428;2023-04-30T03:23:58;100196.50;;;18.22;23.21
72486;BME280;60509;47.308;-122.428;2023-04-30T03:26:24;100200.77;;;16.61;23.61
72486;BME280;60509;47.308;-122.428;2023-04-30T03:28:50;100201.35;;;16.35;23.61
72486;BME280;60509;47.308;-122.428;2023-04-30T03:31:16;100204.68;;;16.38;23.13
72486;BME280;60509;47.308;-122.428;2023-04-30T03:33:42;100213.04;;;16.52;22.85
72486;BME280;60509;47.308;-122.428;2023-04-30T03:36:08;100217.49;;;16.74;23.52
72486;BME280;60509;47.308;-122.428;2023-04-30T03:38:34;100221.53;;;17.89;22.52
72486;BME280;60509;47.308;-122.428;2023-04-30T03:40:59;100224.24;;;18.41;22.28
72486;BME280;60509;47.308;-122.428;2023-04-30T03:43:25;100229.42;;;18.96;22.09
72486;BME280;60509;47.308;-122.428;2023-04-30T03:45:51;100228.99;;;18.51;22.05
72486;BME280;60509;47.308;-122.428;2023-04-30T03:48:17;100232.80;;;16.73;23.35
72486;BME280;60509;47.308;-122.428;2023-04-30T03:50:43;100233.26;;;16.81;22.94
72486;BME280;60509;47.308;-122.428;2023-04-30T03:53:09;100236.42;;;16.63;22.84
72486;BME280;60509;47.308;-122.428;2023-04-30T03:55:35;100238.93;;;16.00;24.38
72486;BME280;60509;47.308;-122.428;2023-04-30T03:58:01;100238.58;;;16.78;23.43
72486;BME280;60509;47.308;-122.428;2023-04-30T04:00:27;100233.21;;;17.58;22.63
72486;BME280;60509;47.308;-122.428;2023-04-30T04:02:52;100234.47;;;18.33;22.23
72486;BME280;60509;47.308;-122.428;2023-04-30T04:05:18;100232.95;;;18.28;22.20
72486;BME280;60509;47.308;-122.428;2023-04-30T04:07:44;100232.10;;;18.39;22.13
72486;BME280;60509;47.308;-122.428;2023-04-30T04:10:10;100231.63;;;17.70;22.89
72486;BME280;60509;47.308;-122.428;2023-04-30T04:12:36;100239.38;;;16.58;23.28
72486;BME280;60509;47.308;-122.428;2023-04-30T04:15:02;100243.02;;;16.15;23.31
72486;BME280;60509;47.308;-122.428;2023-04-30T04:17:28;100246.72;;;15.46;24.34
72486;BME280;60509;47.308;-122.428;2023-04-30T04:19:54;100245.28;;;16.74;23.62
72486;BME280;60509;47.308;-122.428;2023-04-30T04:22:20;100243.44;;;17.68;22.87
72486;BME280;60509;47.308;-122.428;2023-04-30T04:24:45;100248.45;;;18.47;22.45
72486;BME280;60509;47.308;-122.428;2023-04-30T04:27:11;100247.51;;;18.61;22.30
72486;BME280;60509;47.308;-122.428;2023-04-30T04:29:37;100256.17;;;18.40;22.29
72486;BME280;60509;47.308;-122.428;2023-04-30T04:32:04;100254.40;;;18.36;22.27
72486;BME280;60509;47.308;-122.428;2023-04-30T04:34:29;100262.04;;;18.09;22.58
72486;BME280;60509;47.308;-122.428;2023-04-30T04:36:55;100273.85;;;17.11;23.11
72486;BME280;60509;47.308;-122.428;2023-04-30T04:39:21;100274.13;;;16.18;23.35
72486;BME280;60509;47.308;-122.428;2023-04-30T04:41:47;100279.84;;;15.53;23.55
72486;BME280;60509;47.308;-122.428;2023-04-30T04:44:13;100281.19;;;16.36;24.12
72486;BME280;60509;47.308;-122.428;2023-04-30T04:46:39;100280.66;;;16.69;23.65
72486;BME280;60509;47.308;-122.428;2023-04-30T04:49:05;100280.68;;;17.14;23.30
72486;BME280;60509;47.308;-122.428;2023-04-30T04:51:31;100279.18;;;17.36;23.14
72486;BME280;60509;47.308;-122.428;2023-04-30T04:53:56;100273.08;;;17.39;22.89
72486;BME280;60509;47.308;-122.428;2023-04-30T04:56:22;100275.53;;;17.74;23.01
72486;BME280;60509;47.308;-122.428;2023-04-30T04:58:48;100278.57;;;18.11;22.97
72486;BME280;60509;47.308;-122.428;2023-04-30T05:01:14;100281.91;;;17.67;23.13
72486;BME280;60509;47.308;-122.428;2023-04-30T05:03:40;100280.88;;;17.84;23.02
72486;BME280;60509;47.308;-122.428;2023-04-30T05:06:06;100275.86;;;17.67;23.12
72486;BME280;60509;47.308;-122.428;2023-04-30T05:08:32;100280.71;;;17.79;23.19
72486;BME280;60509;47.308;-122.428;2023-04-30T05:10:58;100275.49;;;17.96;23.16
72486;BME280;60509;47.308;-122.428;2023-04-30T05:13:24;100271.02;;;17.34;23.26
72486;BME280;60509;47.308;-122.428;2023-04-30T05:15:51;100269.01;;;17.84;23.27
72486;BME280;60509;47.308;-122.428;2023-04-30T05:18:16;100268.54;;;17.45;23.11
72486;BME280;60509;47.308;-122.428;2023-04-30T05:20:42;100267.86;;;17.81;23.33
72486;BME280;60509;47.308;-122.428;2023-04-30T05:23:08;100267.33;;;17.72;23.24
72486;BME280;60509;47.308;-122.428;2023-04-30T05:25:35;100263.56;;;17.66;23.32
72486;BME280;60509;47.308;-122.428;2023-04-30T05:27:59;100263.93;;;17.76;23.28
72486;BME280;60509;47.308;-122.428;2023-04-30T05:30:25;100262.01;;;17.80;23.23
72486;BME280;60509;47.308;-122.428;2023-04-30T05:32:51;100263.25;;;17.62;23.31
72486;BME280;60509;47.308;-122.428;2023-04-30T05:35:17;100266.14;;;17.71;23.37
72486;BME280;60509;47.308;-122.428;2023-04-30T05:37:43;100268.19;;;18.13;23.17
72486;BME280;60509;47.308;-122.428;2023-04-30T05:40:10;100268.67;;;17.62;23.81
72486;BME280;60509;47.308;-122.428;2023-04-30T05:42:35;100276.88;;;16.02;24.26
72486;BME280;60509;47.308;-122.428;2023-04-30T05:45:01;100280.69;;;16.45;25.06
72486;BME280;60509;47.308;-122.428;2023-04-30T05:47:27;100278.64;;;17.09;24.43
72486;BME280;60509;47.308;-122.428;2023-04-30T05:49:53;100281.53;;;17.33;24.07
72486;BME280;60509;47.308;-122.428;2023-04-30T05:52:19;100282.90;;;17.40;23.71
72486;BME280;60509;47.308;-122.428;2023-04-30T05:54:45;100282.75;;;17.68;23.64
72486;BME280;60509;47.308;-122.428;2023-04-30T05:57:10;100277.33;;;17.72;23.56
72486;BME280;60509;47.308;-122.428;2023-04-30T05:59:36;100273.92;;;17.82;23.51
72486;BME280;60509;47.308;-122.428;2023-04-30T06:02:02;100273.73;;;17.66;23.60
72486;BME280;60509;47.308;-122.428;2023-04-30T06:04:28;100270.92;;;18.04;23.61
72486;BME280;60509;47.308;-122.428;2023-04-30T06:06:54;100269.53;;;18.12;23.72
72486;BME280;60509;47.308;-122.428;2023-04-30T06:09:20;100268.11;;;17.73;23.78
72486;BME280;60509;47.308;-122.428;2023-04-30T06:11:46;100271.36;;;18.38;23.64
72486;BME280;60509;47.308;-122.428;2023-04-30T06:14:12;100267.66;;;17.82;23.85
72486;BME280;60509;47.308;-122.428;2023-04-30T06:16:38;100270.02;;;18.07;23.92
72486;BME280;60509;47.308;-122.428;2023-04-30T06:19:04;100267.55;;;17.41;24.10
72486;BME280;60509;47.308;-122.428;2023-04-30T06:21:29;100261.40;;;17.93;24.15
72486;BME280;60509;47.308;-122.428;2023-04-30T06:23:55;100263.77;;;17.70;23.85
72486;BME280;60509;47.308;-122.428;2023-04-30T06:26:21;100265.66;;;17.77;23.98
72486;BME280;60509;47.308;-122.428;2023-04-30T06:28:47;100262.10;;;17.81;24.32
72486;BME280;60509;47.308;-122.428;2023-04-30T06:31:13;100263.06;;;17.61;24.92
72486;BME280;60509;47.308;-122.428;2023-04-30T06:33:39;100264.17;;;18.27;25.07
72486;BME280;60509;47.308;-122.428;2023-04-30T06:36:05;100265.28;;;17.90;25.28
72486;BME280;60509;47.308;-122.428;2023-04-30T06:38:31;100265.34;;;18.09;25.21
72486;BME280;60509;47.308;-122.428;2023-04-30T06:40:57;100263.11;;;17.75;25.43
72486;BME280;60509;47.308;-122.428;2023-04-30T06:43:23;100267.60;;;17.91;25.30
72486;BME280;60509;47.308;-122.428;2023-04-30T06:45:49;100272.87;;;18.11;25.18
72486;BME280;60509;47.308;-122.428;2023-04-30T06:48:14;100272.94;;;17.93;25.20
72486;BME280;60509;47.308;-122.428;2023-04-30T06:50:40;100266.98;;;17.90;25.32
72486;BME280;60509;47.308;-122.428;2023-04-30T06:53:06;100266.89;;;18.11;25.08
72486;BME280;60509;47.308;-122.428;2023-04-30T06:55:32;100272.58;;;17.79;24.97
72486;BME280;60509;47.308;-122.428;2023-04-30T06:57:58;100275.43;;;17.71;25.02
72486;BME280;60509;47.308;-122.428;2023-04-30T07:00:25;100280.59;;;17.71;25.15
72486;BME280;60509;47.308;-122.428;2023-04-30T07:02:52;100283.04;;;17.91;25.17
72486;BME280;60509;47.308;-122.428;2023-04-30T07:05:17;100280.34;;;17.70;25.12
72486;BME280;60509;47.308;-122.428;2023-04-30T07:07:44;100277.64;;;17.82;25.10
72486;BME280;60509;47.308;-122.428;2023-04-30T07:10:09;100272.46;;;17.79;25.20
72486;BME280;60509;47.308;-122.428;2023-04-30T07:12:37;100272.42;;;18.19;25.08
72486;BME280;60509;47.308;-122.428;2023-04-30T07:15:00;100276.11;;;18.18;24.98
72486;BME280;60509;47.308;-122.428;2023-04-30T07:17:25;100275.09;;;18.11;25.01
72486;BME280;60509;47.308;-122.428;2023-04-30T07:19:52;100279.63;;;18.06;25.02
72486;BME280;60509;47.308;-122.428;2023-04-30T07:22:17;100280.32;;;18.03;24.96
72486;BME280;60509;47.308;-122.428;2023-04-30T07:24:43;100275.74;;;17.65;25.12
72486;BME280;60509;47.308;-122.428;2023-04-30T07:27:09;100277.96;;;17.92;25.05
72486;BME280;60509;47.308;-122.428;2023-04-30T07:29:35;100282.65;;;18.11;25.15
72486;BME280;60509;47.308;-122.428;2023-04-30T07:32:02;100283.96;;;17.74;25.14
72486;BME280;60509;47.308;-122.428;2023-04-30T07:34:28;100281.72;;;17.99;24.90
72486;BME280;60509;47.308;-122.428;2023-04-30T07:36:53;100281.94;;;17.71;25.07
72486;BME280;60509;47.308;-122.428;2023-04-30T07:39:19;100281.10;;;17.69;25.33
72486;BME280;60509;47.308;-122.428;2023-04-30T07:41:45;100280.89;;;17.53;25.44
72486;BME280;60509;47.308;-122.428;2023-04-30T07:44:11;100288.17;;;17.62;25.34
72486;BME280;60509;47.308;-122.428;2023-04-30T07:46:36;100298.54;;;17.36;25.61
72486;BME280;60509;47.308;-122.428;2023-04-30T07:49:03;100302.26;;;17.34;25.64
72486;BME280;60509;47.308;-122.428;2023-04-30T07:51:28;100302.47;;;17.56;25.68
72486;BME280;60509;47.308;-122.428;2023-04-30T07:53:54;100304.42;;;17.71;25.54
72486;BME280;60509;47.308;-122.428;2023-04-30T07:56:21;100307.20;;;17.02;25.61
72486;BME280;60509;47.308;-122.428;2023-04-30T07:58:46;100305.11;;;17.14;25.72
72486;BME280;60509;47.308;-122.428;2023-04-30T08:01:15;100305.73;;;17.30;25.63
72486;BME280;60509;47.308;-122.428;2023-04-30T08:03:38;100306.89;;;17.40;25.52
72486;BME280;60509;47.308;-122.428;2023-04-30T08:06:05;100310.07;;;17.71;25.45
72486;BME280;60509;47.308;-122.428;2023-04-30T08:08:30;100310.18;;;17.28;25.62
72486;BME280;60509;47.308;-122.428;2023-04-30T08:10:56;100303.03;;;17.35;25.73
72486;BME280;60509;47.308;-122.428;2023-04-30T08:13:22;100300.44;;;17.21;25.64
72486;BME280;60509;47.308;-122.428;2023-04-30T08:15:47;100301.79;;;17.57;25.51
72486;BME280;60509;47.308;-122.428;2023-04-30T08:18:13;100302.75;;;17.17;25.56
72486;BME280;60509;47.308;-122.428;2023-04-30T08:20:39;100307.60;;;17.63;25.50
72486;BME280;60509;47.308;-122.428;2023-04-30T08:23:06;100304.92;;;17.40;25.62
72486;BME280;60509;47.308;-122.428;2023-04-30T08:25:31;100301.82;;;17.44;25.49
72486;BME280;60509;47.308;-122.428;2023-04-30T08:27:57;100299.81;;;17.47;25.46
72486;BME280;60509;47.308;-122.428;2023-04-30T08:30:27;100300.99;;;17.52;25.34
72486;BME280;60509;47.308;-122.428;2023-04-30T08:32:49;100303.07;;;17.76;25.20
72486;BME280;60509;47.308;-122.428;2023-04-30T08:35:16;100304.28;;;17.60;25.38
72486;BME280;60509;47.308;-122.428;2023-04-30T08:37:41;100304.78;;;17.44;25.45
72486;BME280;60509;47.308;-122.428;2023-04-30T08:40:08;100305.13;;;17.75;25.28
72486;BME280;60509;47.308;-122.428;2023-04-30T08:42:36;100296.33;;;17.30;25.05
72486;BME280;60509;47.308;-122.428;2023-04-30T08:45:00;100291.29;;;18.02;25.05
72486;BME280;60509;47.308;-122.428;2023-04-30T08:47:25;100294.67;;;17.50;25.49
72486;BME280;60509;47.308;-122.428;2023-04-30T08:49:50;100293.18;;;17.02;25.89
72486;BME280;60509;47.308;-122.428;2023-04-30T08:52:16;100285.99;;;17.11;25.61
72486;BME280;60509;47.308;-122.428;2023-04-30T08:54:43;100284.93;;;17.09;25.60
72486;BME280;60509;47.308;-122.428;2023-04-30T08:57:08;100285.47;;;17.63;25.50
72486;BME280;60509;47.308;-122.428;2023-04-30T08:59:34;100282.73;;;17.64;25.40
72486;BME280;60509;47.308;-122.428;2023-04-30T09:02:00;100284.11;;;17.65;25.45
72486;BME280;60509;47.308;-122.428;2023-04-30T09:04:26;100287.28;;;17.53;25.45
72486;BME280;60509;47.308;-122.428;2023-04-30T09:06:52;100282.33;;;17.34;25.50
72486;BME280;60509;47.308;-122.428;2023-04-30T09:09:18;100283.72;;;17.55;25.52
72486;BME280;60509;47.308;-122.428;2023-04-30T09:11:44;100285.13;;;17.14;25.61
72486;BME280;60509;47.308;-122.428;2023-04-30T09:14:10;100289.05;;;17.07;25.63
72486;BME280;60509;47.308;-122.428;2023-04-30T09:16:51;100288.29;;;17.02;25.66
72486;BME280;60509;47.308;-122.428;2023-04-30T09:19:03;100290.16;;;17.31;25.85
72486;BME280;60509;47.308;-122.428;2023-04-30T09:21:32;100293.08;;;17.38;25.78
72486;BME280;60509;47.308;-122.428;2023-04-30T09:23:55;100290.35;;;17.04;25.88
72486;BME280;60509;47.308;-122.428;2023-04-30T09:26:25;100292.12;;;17.27;25.84
72486;BME280;60509;47.308;-122.428;2023-04-30T09:28:55;100297.72;;;17.26;25.57
72486;BME280;60509;47.308;-122.428;2023-04-30T09:31:20;100298.13;;;17.23;25.76
72486;BME280;60509;47.308;-122.428;2023-04-30T09:33:45;100300.08;;;16.92;25.78
72486;BME280;60509;47.308;-122.428;2023-04-30T09:36:09;100307.63;;;17.59;25.34
72486;BME280;60509;47.308;-122.428;2023-04-30T09:38:30;100309.53;;;17.30;25.46
72486;BME280;60509;47.308;-122.428;2023-04-30T09:40:56;100310.88;;;17.20;25.55
72486;BME280;60509;47.308;-122.428;2023-04-30T09:43:21;100310.15;;;17.37;25.39
72486;BME280;60509;47.308;-122.428;2023-04-30T09:45:48;100309.40;;;17.28;25.30
72486;BME280;60509;47.308;-122.428;2023-04-30T09:48:15;100314.58;;;17.60;25.25
72486;BME280;60509;47.308;-122.428;2023-04-30T09:50:39;100315.17;;;17.38;25.29
72486;BME280;60509;47.308;-122.428;2023-04-30T09:53:06;100316.09;;;17.19;25.29
72486;BME280;60509;47.308;-122.428;2023-04-30T09:55:31;100315.30;;;17.26;25.45
72486;BME280;60509;47.308;-122.428;2023-04-30T09:57:56;100316.98;;;17.40;25.26
72486;BME280;60509;47.308;-122.428;2023-04-30T10:00:23;100319.22;;;17.02;25.59
72486;BME280;60509;47.308;-122.428;2023-04-30T10:02:49;100317.09;;;17.15;25.62
72486;BME280;60509;47.308;-122.428;2023-04-30T10:05:14;100315.83;;;17.13;25.46
72486;BME280;60509;47.308;-122.428;2023-04-30T10:07:40;100314.91;;;17.18;25.52
72486;BME280;60509;47.308;-122.428;2023-04-30T10:10:09;100316.65;;;16.96;25.48
72486;BME280;60509;47.308;-122.428;2023-04-30T10:12:42;100315.55;;;16.81;25.70
72486;BME280;60509;47.308;-122.428;2023-04-30T10:15:03;100319.77;;;16.91;25.64
72486;BME280;60509;47.308;-122.428;2023-04-30T10:17:26;100327.63;;;16.78;25.55
72486;BME280;60509;47.308;-122.428;2023-04-30T10:19:51;100330.20;;;16.78;25.52
72486;BME280;60509;47.308;-122.428;2023-04-30T10:22:16;100336.25;;;16.69;25.31
72486;BME280;60509;47.308;-122.428;2023-04-30T10:24:42;100334.46;;;16.81;25.29
72486;BME280;60509;47.308;-122.428;2023-04-30T10:27:07;100332.74;;;16.83;25.29
72486;BME280;60509;47.308;-122.428;2023-04-30T10:29:33;100334.23;;;17.53;25.86
72486;BME280;60509;47.308;-122.428;2023-04-30T10:32:00;100336.25;;;17.70;26.85
72486;BME280;60509;47.308;-122.428;2023-04-30T10:34:39;100337.53;;;17.35;27.79
72486;BME280;60509;47.308;-122.428;2023-04-30T10:36:55;100337.51;;;17.87;27.76
72486;BME280;60509;47.308;-122.428;2023-04-30T10:39:19;100332.48;;;17.29;28.04
72486;BME280;60509;47.308;-122.428;2023-04-30T10:41:45;100325.79;;;17.10;27.87
72486;BME280;60509;47.308;-122.428;2023-04-30T10:44:09;100326.19;;;16.71;27.73
72486;BME280;60509;47.308;-122.428;2023-04-30T10:46:35;100323.83;;;16.93;27.55
72486;BME280;60509;47.308;-122.428;2023-04-30T10:49:00;100323.16;;;16.82;27.48
72486;BME280;60509;47.308;-122.428;2023-04-30T10:51:44;100324.20;;;16.92;27.30
72486;BME280;60509;47.308;-122.428;2023-04-30T10:53:54;100318.75;;;16.96;27.09
72486;BME280;60509;47.308;-122.428;2023-04-30T10:56:30;100316.85;;;16.86;26.93
72486;BME280;60509;47.308;-122.428;2023-04-30T10:58:44;100325.24;;;16.76;26.99
72486;BME280;60509;47.308;-122.428;2023-04-30T11:01:12;100323.13;;;16.85;26.75
72486;BME280;60509;47.308;-122.428;2023-04-30T11:03:36;100330.49;;;16.51;26.82
72486;BME280;60509;47.308;-122.428;2023-04-30T11:06:08;100331.36;;;17.50;26.32
72486;BME280;60509;47.308;-122.428;2023-04-30T11:08:35;100326.77;;;17.43;26.31
72486;BME280;60509;47.308;-122.428;2023-04-30T11:10:58;100322.97;;;17.58;26.13
72486;BME280;60509;47.308;-122.428;2023-04-30T11:13:19;100329.74;;;17.10;26.63
72486;BME280;60509;47.308;-122.428;2023-04-30T11:15:45;100327.20;;;16.84;26.81
72486;BME280;60509;47.308;-122.428;2023-04-30T11:18:13;100327.25;;;16.59;26.72
72486;BME280;60509;47.308;-122.428;2023-04-30T11:20:40;100327.64;;;16.70;26.60
72486;BME280;60509;47.308;-122.428;2023-04-30T11:23:12;100332.20;;;16.61;26.58
72486;BME280;60509;47.308;-122.428;2023-04-30T11:25:39;100333.46;;;16.49;26.49
72486;BME280;60509;47.308;-122.428;2023-04-30T11:27:56;100336.11;;;16.39;26.52
72486;BME280;60509;47.308;-122.428;2023-04-30T11:30:21;100335.00;;;16.44;26.38
72486;BME280;60509;47.308;-122.428;2023-04-30T11:32:47;100335.77;;;17.05;25.89
72486;BME280;60509;47.308;-122.428;2023-04-30T11:35:14;100339.64;;;17.12;25.86
72486;BME280;60509;47.308;-122.428;2023-04-30T11:37:41;100338.43;;;17.45;25.86
72486;BME280;60509;47.308;-122.428;2023-04-30T11:40:06;100339.52;;;16.90;26.11
72486;BME280;60509;47.308;-122.428;2023-04-30T11:42:30;100345.61;;;16.64;26.29
72486;BME280;60509;47.308;-122.428;2023-04-30T11:45:03;100341.70;;;16.56;26.27
72486;BME280;60509;47.308;-122.428;2023-04-30T11:47:22;100334.59;;;16.69;26.23
72486;BME280;60509;47.308;-122.428;2023-04-30T11:49:50;100334.86;;;16.68;26.23
72486;BME280;60509;47.308;-122.428;2023-04-30T11:52:14;100332.24;;;16.39;26.23
72486;BME280;60509;47.308;-122.428;2023-04-30T11:54:39;100332.30;;;16.39;26.23
72486;BME280;60509;47.308;-122.428;2023-04-30T11:57:05;100331.61;;;16.47;26.05
72486;BME280;60509;47.308;-122.428;2023-04-30T11:59:33;100330.29;;;16.60;26.06
72486;BME280;60509;47.308;-122.428;2023-04-30T12:01:58;100330.28;;;17.32;25.59
72486;BME280;60509;47.308;-122.428;2023-04-30T12:04:24;100324.00;;;17.42;25.57
72486;BME280;60509;47.308;-122.428;2023-04-30T12:06:49;100324.62;;;17.25;25.64
72486;BME280;60509;47.308;-122.428;2023-04-30T12:09:15;100325.40;;;17.29;25.64
72486;BME280;60509;47.308;-122.428;2023-04-30T12:11:41;100327.66;;;16.85;26.12
72486;BME280;60509;47.308;-122.428;2023-04-30T12:14:08;100323.33;;;16.53;26.25
72486;BME280;60509;47.308;-122.428;2023-04-30T12:16:42;100324.49;;;16.58;26.39